Time;durP1;ratioP1;P1;durP2;ratioP2;P2;SDS_P1;SDS_P2;PMS_P1;PMS_P2;Temp;Humidity;BMP_temperature;BMP_pressure;BME280_temperature;BME280_humidity;BME280_pressure;Samples;Min_cycle;Max_cycle;Signal;HPM_P1;HPM_P2
2023/08/21 00:01:18;;;;;;;2.20;2.10;;;16.40;99.90;;;;;;4966743;28;20161;-87
2023/08/21 00:03:44;;;;;;;2.38;2.28;;;16.30;99.90;;;;;;4981604;28;20054;-89
2023/08/21 00:06:10;;;;;;;2.20;2.10;;;16.30;99.90;;;;;;4958998;28;20412;-89
2023/08/21 00:08:36;;;;;;;2.30;2.20;;;16.30;99.90;;;;;;4964525;28;20136;-88
2023/08/21 00:11:02;;;;;;;2.30;2.20;;;16.30;99.90;;;;;;4961256;28;20074;-87
2023/08/21 00:13:27;;;;;;;2.35;2.25;;;16.40;99.90;;;;;;4957645;28;20038;-89
2023/08/21 00:15:55;;;;;;;2.30;2.20;;;16.40;99.90;;;;;;4959232;28;20460;-88
2023/08/21 00:18:21;;;;;;;2.40;2.30;;;16.50;99.90;;;;;;4977195;28;20129;-89
2023/08/21 00:20:46;;;;;;;2.42;2.33;;;16.40;99.90;;;;;;4959561;28;20038;-88
2023/08/21 00:23:12;;;;;;;2.45;2.35;;;16.40;99.90;;;;;;4950065;28;20042;-88
2023/08/21 00:25:38;;;;;;;2.40;2.30;;;16.40;99.90;;;;;;4975787;28;20498;-88
2023/08/21 00:28:04;;;;;;;2.55;2.45;;;16.40;99.90;;;;;;4947992;28;20069;-89
2023/08/21 00:30:30;;;;;;;2.58;2.47;;;16.50;99.90;;;;;;4980734;28;20045;-88
2023/08/21 00:32:55;;;;;;;2.60;2.50;;;16.40;99.90;;;;;;4946597;28;20069;-89
2023/08/21 00:35:21;;;;;;;2.72;2.58;;;16.30;99.90;;;;;;4954579;28;20065;-88
2023/08/21 00:37:47;;;;;;;2.60;2.50;;;16.10;99.90;;;;;;4961502;28;20043;-87
2023/08/21 00:40:13;;;;;;;2.55;2.45;;;16.10;99.90;;;;;;4957309;28;20042;-88
2023/08/21 00:42:39;;;;;;;2.80;2.60;;;16.00;99.90;;;;;;4960404;28;20571;-88
2023/08/21 00:45:08;;;;;;;2.80;2.60;;;16.00;99.90;;;;;;4955605;28;20141;-89
2023/08/21 00:47:34;;;;;;;2.80;2.60;;;16.20;99.90;;;;;;4962639;28;20081;-90
2023/08/21 00:50:00;;;;;;;2.80;2.60;;;16.20;99.90;;;;;;4956553;28;20031;-88
2023/08/21 00:52:26;;;;;;;2.70;2.55;;;16.20;99.90;;;;;;4958478;28;20452;-88
2023/08/21 00:54:51;;;;;;;2.55;2.45;;;16.20;99.90;;;;;;4956725;28;20062;-88
2023/08/21 00:57:18;;;;;;;2.60;2.50;;;16.10;99.90;;;;;;4946870;28;20050;-90
2023/08/21 00:59:43;;;;;;;2.40;2.30;;;16.10;99.90;;;;;;4946657;28;20038;-89
2023/08/21 01:02:09;;;;;;;2.10;2.00;;;16.00;99.90;;;;;;4948318;28;20395;-88
2023/08/21 01:04:35;;;;;;;2.08;1.98;;;16.00;99.90;;;;;;4958842;28;20385;-88
2023/08/21 01:07:01;;;;;;;2.00;1.90;;;16.00;99.90;;;;;;4946373;28;20074;-89
2023/08/21 01:09:49;;;;;;;2.38;2.28;;;16.10;99.90;;;;;;4963229;28;20412;-88
2023/08/21 01:12:35;;;;;;;2.35;2.25;;;16.10;99.90;;;;;;4958987;28;20061;-88
2023/08/21 01:15:06;;;;;;;2.15;2.05;;;15.90;99.90;;;;;;4961062;28;20078;-88
2023/08/21 01:17:35;;;;;;;2.17;2.08;;;16.00;99.90;;;;;;4960909;28;20065;-89
2023/08/21 01:20:02;;;;;;;2.22;2.13;;;16.10;99.90;;;;;;4954267;28;20050;-89
2023/08/21 01:22:38;;;;;;;2.33;2.22;;;16.20;99.90;;;;;;4948293;28;20074;-89
2023/08/21 01:25:05;;;;;;;2.25;2.15;;;16.30;99.90;;;;;;4964524;28;20042;-89
2023/08/21 01:27:34;;;;;;;2.15;2.05;;;16.30;99.90;;;;;;4964797;28;20069;-89
2023/08/21 01:30:02;;;;;;;2.08;1.98;;;16.50;99.90;;;;;;4963487;28;20081;-89
2023/08/21 01:32:59;;;;;;;2.03;1.92;;;16.50;99.90;;;;;;4968428;28;20498;-89
2023/08/21 01:35:26;;;;;;;1.95;1.85;;;16.40;99.90;;;;;;4957917;28;20056;-88
2023/08/21 01:37:52;;;;;;;1.88;1.77;;;16.40;99.90;;;;;;4968794;28;20040;-89
2023/08/21 01:40:25;;;;;;;1.98;1.88;;;16.40;99.90;;;;;;4948670;28;20046;-88
2023/08/21 01:42:52;;;;;;;1.88;1.77;;;16.30;99.90;;;;;;4956887;28;20058;-88
2023/08/21 01:45:21;;;;;;;1.88;1.77;;;16.30;99.90;;;;;;4967385;28;20579;-90
2023/08/21 01:47:47;;;;;;;1.95;1.85;;;16.40;99.90;;;;;;4961989;28;20492;-89
2023/08/21 01:50:13;;;;;;;1.80;1.70;;;16.30;99.90;;;;;;4945882;28;20137;-88
2023/08/21 01:52:39;;;;;;;1.90;1.80;;;16.40;99.90;;;;;;4945104;28;20065;-89
2023/08/21 01:55:07;;;;;;;2.00;1.90;;;16.30;99.90;;;;;;4961791;28;20046;-88
2023/08/21 01:57:33;;;;;;;1.80;1.70;;;16.20;99.90;;;;;;4960679;28;20042;-86
2023/08/21 01:59:59;;;;;;;1.90;1.80;;;16.20;99.90;;;;;;4980131;28;20048;-86
2023/08/21 02:02:25;;;;;;;1.88;1.77;;;16.40;99.90;;;;;;4960349;28;20050;-87
2023/08/21 02:04:50;;;;;;;1.83;1.73;;;16.20;99.90;;;;;;4945760;28;20611;-87
2023/08/21 02:07:16;;;;;;;1.80;1.70;;;16.40;99.90;;;;;;4960979;28;20052;-87
2023/08/21 02:09:41;;;;;;;1.85;1.75;;;16.10;99.90;;;;;;4966951;28;20046;-88
2023/08/21 02:12:07;;;;;;;1.90;1.80;;;16.30;99.90;;;;;;4942001;28;20086;-86
2023/08/21 02:14:33;;;;;;;1.90;1.80;;;16.40;99.90;;;;;;4961415;28;20061;-86
2023/08/21 02:16:59;;;;;;;1.60;1.50;;;16.10;99.90;;;;;;4962192;28;20405;-88
2023/08/21 02:19:27;;;;;;;1.58;1.48;;;16.10;99.90;;;;;;4950588;28;20057;-87
2023/08/21 02:21:53;;;;;;;1.50;1.40;;;16.00;99.90;;;;;;4982680;28;20046;-87
2023/08/21 02:24:18;;;;;;;1.55;1.45;;;16.00;99.90;;;;;;4959742;28;20054;-89
2023/08/21 02:26:45;;;;;;;0.70;0.70;;;15.90;99.90;;;;;;4964715;28;20031;-89
2023/08/21 02:29:11;;;;;;;0.60;0.60;;;15.90;99.90;;;;;;4963106;28;20046;-88
2023/08/21 02:31:37;;;;;;;0.55;0.55;;;15.90;99.90;;;;;;4954837;28;20126;-88
2023/08/21 02:34:02;;;;;;;0.60;0.60;;;15.90;99.90;;;;;;4960501;28;20083;-88
2023/08/21 02:36:28;;;;;;;0.60;0.60;;;15.90;99.90;;;;;;4955978;28;20802;-88
2023/08/21 02:38:55;;;;;;;0.60;0.60;;;15.70;99.90;;;;;;4963040;28;20050;-88
2023/08/21 02:41:21;;;;;;;0.60;0.60;;;15.70;99.90;;;;;;4959063;28;20046;-89
2023/08/21 02:43:47;;;;;;;0.70;0.70;;;15.60;99.90;;;;;;4957347;28;20543;-88
2023/08/21 02:46:12;;;;;;;0.60;0.60;;;15.60;99.90;;;;;;4944834;28;20046;-88
2023/08/21 02:48:38;;;;;;;0.60;0.60;;;15.70;99.90;;;;;;4960446;28;20050;-87
2023/08/21 02:51:04;;;;;;;0.70;0.70;;;15.60;99.90;;;;;;4985172;28;20053;-87
2023/08/21 02:53:29;;;;;;;0.60;0.60;;;15.40;99.90;;;;;;4960133;28;20052;-87
2023/08/21 02:55:55;;;;;;;0.60;0.60;;;15.50;99.90;;;;;;4957177;28;20074;-86
2023/08/21 02:58:21;;;;;;;0.60;0.60;;;15.40;99.90;;;;;;4966126;28;21865;-88
2023/08/21 03:00:46;;;;;;;0.70;0.70;;;15.40;99.90;;;;;;4959940;28;20911;-87
2023/08/21 03:03:12;;;;;;;0.70;0.70;;;15.60;99.90;;;;;;4961712;28;20058;-87
2023/08/21 03:05:37;;;;;;;0.70;0.70;;;15.40;99.90;;;;;;4961088;28;20535;-87
2023/08/21 03:08:03;;;;;;;0.70;0.70;;;15.40;99.90;;;;;;4961753;28;20042;-87
2023/08/21 03:10:33;;;;;;;0.70;0.70;;;15.40;99.90;;;;;;4967054;28;20043;-87
2023/08/21 03:12:59;;;;;;;0.80;0.80;;;15.60;99.90;;;;;;4965646;28;20054;-87
2023/08/21 03:15:25;;;;;;;0.80;0.80;;;15.50;99.90;;;;;;4964835;28;20046;-88
2023/08/21 03:17:50;;;;;;;0.80;0.80;;;15.50;99.90;;;;;;4971541;28;20050;-87
2023/08/21 03:20:17;;;;;;;0.80;0.80;;;15.20;99.90;;;;;;4960960;28;20138;-87
2023/08/21 03:22:43;;;;;;;0.90;0.90;;;15.30;99.90;;;;;;4945020;28;20141;-86
2023/08/21 03:25:09;;;;;;;0.90;0.90;;;15.20;99.90;;;;;;4962612;28;20415;-86
2023/08/21 03:27:39;;;;;;;0.80;0.80;;;15.10;99.90;;;;;;4965062;28;20061;-87
2023/08/21 03:30:06;;;;;;;0.80;0.80;;;15.10;99.90;;;;;;4962303;28;20152;-87
2023/08/21 03:32:32;;;;;;;0.80;0.80;;;15.10;99.90;;;;;;4963954;28;20697;-87
2023/08/21 03:34:58;;;;;;;0.80;0.80;;;15.00;99.90;;;;;;4986474;28;20058;-87
2023/08/21 03:37:24;;;;;;;0.70;0.70;;;15.10;99.90;;;;;;4960953;28;20096;-86
2023/08/21 03:39:50;;;;;;;0.68;0.68;;;15.10;99.90;;;;;;4984316;28;20050;-86
2023/08/21 03:42:15;;;;;;;0.70;0.70;;;15.30;99.90;;;;;;4969690;28;20093;-87
2023/08/21 03:44:41;;;;;;;0.70;0.70;;;14.90;99.90;;;;;;4957983;28;20377;-86
2023/08/21 03:47:07;;;;;;;0.60;0.60;;;15.10;99.90;;;;;;4965497;28;20228;-86
2023/08/21 03:49:33;;;;;;;0.70;0.70;;;15.20;99.90;;;;;;4960965;28;20054;-86
2023/08/21 03:51:58;;;;;;;0.55;0.55;;;15.10;99.90;;;;;;4959807;28;20061;-86
2023/08/21 03:54:24;;;;;;;0.70;0.70;;;15.00;99.90;;;;;;4962067;28;20078;-86
2023/08/21 03:56:50;;;;;;;0.70;0.70;;;14.80;99.90;;;;;;4965614;28;20092;-86
2023/08/21 03:59:15;;;;;;;0.70;0.70;;;14.60;99.90;;;;;;4960760;28;20049;-86
2023/08/21 04:01:41;;;;;;;0.70;0.70;;;14.80;99.90;;;;;;4953776;28;20412;-87
2023/08/21 04:04:06;;;;;;;0.85;0.85;;;14.40;99.90;;;;;;4965680;28;20408;-87
2023/08/21 04:06:32;;;;;;;0.88;0.88;;;14.50;99.90;;;;;;4962394;28;20050;-86
2023/08/21 04:08:58;;;;;;;0.70;0.70;;;14.50;99.90;;;;;;4963497;28;20077;-87
2023/08/21 04:11:23;;;;;;;0.90;0.90;;;14.80;99.90;;;;;;4963737;28;20042;-87
2023/08/21 04:13:49;;;;;;;0.80;0.80;;;14.70;99.90;;;;;;4964795;28;20042;-87
2023/08/21 04:16:17;;;;;;;0.80;0.80;;;14.70;99.90;;;;;;4944695;28;20134;-86
2023/08/21 04:18:43;;;;;;;0.88;0.88;;;14.60;99.90;;;;;;4958885;28;20046;-87
2023/08/21 04:21:09;;;;;;;0.80;0.80;;;14.60;99.90;;;;;;4963307;28;20148;-86
2023/08/21 04:23:35;;;;;;;0.75;0.75;;;14.60;99.90;;;;;;4981243;28;20051;-86
2023/08/21 04:26:04;;;;;;;0.77;0.77;;;14.80;99.90;;;;;;4963386;28;20536;-87
2023/08/21 04:28:31;;;;;;;0.70;0.70;;;14.80;99.90;;;;;;4967212;28;20057;-86
2023/08/21 04:30:57;;;;;;;0.70;0.70;;;14.60;99.90;;;;;;4967382;28;20559;-86
2023/08/21 04:33:25;;;;;;;0.80;0.80;;;14.50;99.90;;;;;;4965675;28;20531;-86
2023/08/21 04:35:50;;;;;;;0.70;0.70;;;14.60;99.90;;;;;;4964673;28;20034;-86
2023/08/21 04:38:16;;;;;;;0.77;0.77;;;14.60;99.90;;;;;;4960910;28;20045;-87
2023/08/21 04:40:41;;;;;;;0.70;0.70;;;14.60;99.90;;;;;;4961489;28;20730;-86
2023/08/21 04:43:07;;;;;;;0.80;0.80;;;14.50;99.90;;;;;;4945766;28;20054;-86
2023/08/21 04:45:33;;;;;;;0.93;0.93;;;14.50;99.90;;;;;;4963041;28;20046;-87
2023/08/21 04:47:58;;;;;;;0.98;0.98;;;14.50;99.90;;;;;;4962773;28;20147;-86
2023/08/21 04:50:24;;;;;;;0.93;0.93;;;14.70;99.90;;;;;;4958865;28;20133;-87
2023/08/21 04:52:50;;;;;;;1.10;1.10;;;14.50;99.90;;;;;;4961973;28;20074;-87
2023/08/21 04:55:16;;;;;;;1.17;1.17;;;14.60;99.90;;;;;;4961386;28;20038;-87
2023/08/21 04:57:42;;;;;;;1.30;1.30;;;14.60;99.90;;;;;;4963883;28;20502;-87
2023/08/21 05:00:09;;;;;;;1.30;1.30;;;14.50;99.90;;;;;;4983074;28;20085;-87
2023/08/21 05:02:35;;;;;;;1.25;1.25;;;14.70;99.90;;;;;;4978203;28;21805;-86
2023/08/21 05:05:00;;;;;;;1.40;1.35;;;14.60;99.90;;;;;;4957500;28;20054;-86
2023/08/21 05:07:27;;;;;;;1.40;1.35;;;14.70;99.90;;;;;;4967562;28;20681;-87
2023/08/21 05:09:52;;;;;;;1.63;1.52;;;15.20;99.90;;;;;;4961033;28;20050;-86
2023/08/21 05:12:18;;;;;;;1.48;1.40;;;15.20;99.90;;;;;;4965236;28;20061;-87
2023/08/21 05:14:43;;;;;;;1.27;1.27;;;16.30;99.90;;;;;;4964640;28;20611;-87
2023/08/21 05:17:09;;;;;;;0.95;0.95;;;16.20;99.90;;;;;;4962230;28;20104;-86
2023/08/21 05:19:35;;;;;;;0.75;0.75;;;17.40;99.90;;;;;;4962912;28;20050;-86
2023/08/21 05:22:00;;;;;;;0.60;0.60;;;17.10;99.90;;;;;;4966856;28;20054;-85
2023/08/21 05:24:26;;;;;;;0.60;0.60;;;18.50;99.90;;;;;;4957337;28;20046;-86
2023/08/21 05:26:52;;;;;;;0.50;0.50;;;19.50;99.90;;;;;;4956728;28;20582;-86
2023/08/21 05:29:17;;;;;;;0.60;0.60;;;20.10;99.90;;;;;;4954481;28;20046;-87
2023/08/21 05:31:43;;;;;;;0.80;0.80;;;20.40;99.90;;;;;;4983367;28;20061;-87
2023/08/21 05:34:08;;;;;;;1.02;1.02;;;20.90;99.90;;;;;;4962189;28;20046;-86
2023/08/21 05:36:34;;;;;;;1.10;1.10;;;21.50;99.90;;;;;;4962115;28;20051;-86
2023/08/21 05:39:05;;;;;;;1.10;1.10;;;21.80;99.90;;;;;;4962697;28;20522;-88
2023/08/21 05:41:31;;;;;;;1.35;1.33;;;22.20;99.90;;;;;;4960705;28;20077;-89
2023/08/21 05:43:57;;;;;;;1.20;1.20;;;22.60;99.90;;;;;;4965611;28;20050;-87
2023/08/21 05:46:23;;;;;;;1.17;1.17;;;22.50;99.90;;;;;;4959212;28;20068;-85
2023/08/21 05:48:48;;;;;;;1.10;1.10;;;22.90;99.90;;;;;;4960618;28;20225;-85
2023/08/21 05:51:14;;;;;;;1.17;1.17;;;22.10;99.90;;;;;;4958080;28;20050;-86
2023/08/21 05:53:40;;;;;;;1.17;1.17;;;22.40;99.90;;;;;;4961061;28;20051;-85
2023/08/21 05:56:05;;;;;;;1.23;1.23;;;20.70;99.90;;;;;;4963011;28;20070;-86
2023/08/21 05:58:32;;;;;;;1.20;1.20;;;20.00;99.90;;;;;;4959382;28;20039;-86
2023/08/21 06:00:58;;;;;;;1.10;1.10;;;19.90;99.90;;;;;;4981247;28;20050;-85
2023/08/21 06:03:24;;;;;;;1.25;1.25;;;19.70;99.90;;;;;;4941952;28;20722;-87
2023/08/21 06:05:49;;;;;;;1.23;1.23;;;19.50;99.90;;;;;;4961546;28;20045;-86
2023/08/21 06:08:15;;;;;;;1.48;1.40;;;19.60;99.90;;;;;;4962070;28;20512;-85
2023/08/21 06:10:41;;;;;;;1.23;1.23;;;19.40;99.90;;;;;;4960820;28;20077;-85
2023/08/21 06:13:06;;;;;;;1.35;1.33;;;19.60;99.90;;;;;;4982659;28;20065;-86
2023/08/21 06:15:32;;;;;;;1.50;1.42;;;19.60;99.90;;;;;;4965995;28;20042;-87
2023/08/21 06:17:59;;;;;;;1.10;1.10;;;19.50;99.90;;;;;;4965015;28;20092;-87
2023/08/21 06:20:25;;;;;;;1.20;1.20;;;19.80;99.90;;;;;;4966035;28;20041;-87
2023/08/21 06:22:50;;;;;;;1.20;1.20;;;19.70;99.90;;;;;;4958715;28;20038;-85
2023/08/21 06:25:16;;;;;;;1.30;1.30;;;20.00;99.90;;;;;;4960286;28;20152;-87
2023/08/21 06:27:45;;;;;;;1.20;1.20;;;19.70;99.90;;;;;;4984242;28;20053;-88
2023/08/21 06:30:11;;;;;;;1.48;1.40;;;20.10;99.90;;;;;;4964327;28;20054;-87
2023/08/21 06:32:36;;;;;;;1.20;1.20;;;20.30;99.90;;;;;;4963700;28;20124;-87
2023/08/21 06:35:02;;;;;;;1.17;1.17;;;20.50;99.90;;;;;;4970890;28;20056;-88
2023/08/21 06:37:28;;;;;;;1.33;1.33;;;20.60;99.90;;;;;;4958110;28;20042;-90
2023/08/21 06:39:57;;;;;;;1.17;1.17;;;20.50;99.90;;;;;;4952870;28;20488;-93
2023/08/21 06:42:22;;;;;;;1.13;1.13;;;20.70;99.90;;;;;;4968995;28;20050;-88
2023/08/21 06:44:48;;;;;;;1.00;1.00;;;21.00;99.90;;;;;;4969995;28;20069;-90
2023/08/21 06:47:14;;;;;;;1.13;1.13;;;21.00;99.90;;;;;;4972055;28;20137;-87
2023/08/21 06:49:39;;;;;;;0.90;0.90;;;21.10;99.90;;;;;;4969330;28;20042;-87
2023/08/21 06:52:05;;;;;;;0.82;0.82;;;20.90;99.90;;;;;;4963887;28;20408;-87
2023/08/21 06:54:31;;;;;;;0.80;0.80;;;21.20;99.90;;;;;;4970367;28;20519;-89
2023/08/21 06:56:57;;;;;;;0.80;0.80;;;20.70;99.90;;;;;;4950291;28;20046;-89
2023/08/21 06:59:23;;;;;;;0.80;0.80;;;20.70;99.90;;;;;;4987520;28;20046;-87
2023/08/21 07:01:48;;;;;;;0.70;0.70;;;20.90;99.90;;;;;;4974926;28;20053;-88
2023/08/21 07:04:14;;;;;;;0.80;0.80;;;21.40;99.90;;;;;;4988136;28;20081;-89
2023/08/21 07:06:40;;;;;;;0.82;0.82;;;21.20;99.90;;;;;;4967387;28;20050;-88
2023/08/21 07:09:05;;;;;;;0.80;0.80;;;21.40;99.90;;;;;;4965897;28;20152;-88
2023/08/21 07:11:31;;;;;;;0.80;0.80;;;21.80;99.90;;;;;;4956058;28;20119;-88
2023/08/21 07:13:57;;;;;;;0.80;0.80;;;21.80;99.90;;;;;;4965645;28;20472;-86
2023/08/21 07:16:23;;;;;;;0.90;0.90;;;22.10;99.90;;;;;;4986858;28;20443;-87
2023/08/21 07:18:48;;;;;;;1.00;1.00;;;22.30;99.90;;;;;;4969735;28;20042;-87
2023/08/21 07:21:14;;;;;;;0.93;0.93;;;22.40;99.90;;;;;;4963217;28;20057;-87
2023/08/21 07:23:39;;;;;;;1.00;1.00;;;22.60;99.90;;;;;;4971911;28;20042;-87
2023/08/21 07:26:07;;;;;;;0.90;0.90;;;22.60;99.90;;;;;;4966000;28;20061;-87
2023/08/21 07:28:33;;;;;;;0.80;0.80;;;22.70;99.90;;;;;;4983825;28;20412;-87
2023/08/21 07:30:59;;;;;;;0.70;0.70;;;22.80;99.90;;;;;;4965562;28;20109;-88
2023/08/21 07:33:26;;;;;;;0.90;0.90;;;23.00;99.90;;;;;;4964720;28;20049;-87
2023/08/21 07:36:03;;;;;;;0.80;0.80;;;23.10;99.90;;;;;;4958874;28;20046;-86
2023/08/21 07:38:29;;;;;;;0.88;0.88;;;23.10;99.90;;;;;;4972827;28;20054;-86
2023/08/21 07:41:12;;;;;;;0.98;0.98;;;23.00;99.90;;;;;;4958782;28;20452;-85
2023/08/21 07:43:42;;;;;;;1.17;1.17;;;23.00;99.90;;;;;;4953570;28;20046;-86
2023/08/21 07:46:12;;;;;;;1.20;1.20;;;22.90;99.90;;;;;;4960030;28;20050;-85
2023/08/21 07:48:38;;;;;;;0.35;0.35;;;22.50;99.90;;;;;;4958478;28;20570;-86
2023/08/21 07:51:03;;;;;;;1.02;1.02;;;22.80;99.90;;;;;;4955765;28;20045;-88
2023/08/21 07:53:31;;;;;;;0.68;0.68;;;23.00;99.90;;;;;;4963352;28;20537;-87
2023/08/21 07:55:58;;;;;;;0.98;0.98;;;23.30;99.90;;;;;;4952149;28;20065;-89
2023/08/21 07:58:23;;;;;;;0.30;0.30;;;23.10;99.90;;;;;;4958782;28;20137;-87
2023/08/21 08:00:49;;;;;;;0.90;0.90;;;23.10;99.90;;;;;;4957221;28;20113;-90
2023/08/21 08:03:15;;;;;;;0.90;0.90;;;23.30;99.90;;;;;;4958794;28;20074;-88
2023/08/21 08:05:42;;;;;;;0.30;0.30;;;23.40;99.90;;;;;;4944986;28;20046;-87
2023/08/21 08:08:10;;;;;;;0.60;0.60;;;23.50;99.90;;;;;;4945364;28;20527;-87
2023/08/21 08:10:40;;;;;;;0.50;0.50;;;23.60;99.90;;;;;;4960341;28;20046;-88
2023/08/21 08:13:07;;;;;;;0.47;0.47;;;23.60;99.90;;;;;;4946893;28;20048;-89
2023/08/21 08:15:34;;;;;;;0.47;0.47;;;23.90;99.90;;;;;;4947245;28;20054;-89
2023/08/21 08:18:01;;;;;;;0.52;0.52;;;23.90;99.90;;;;;;4945102;28;20047;-87
2023/08/21 08:20:26;;;;;;;0.30;0.30;;;24.10;99.90;;;;;;4952630;28;20034;-90
2023/08/21 08:22:52;;;;;;;0.30;0.30;;;24.10;99.90;;;;;;4964741;28;20602;-90
2023/08/21 08:25:18;;;;;;;0.30;0.30;;;24.20;99.90;;;;;;4959270;28;20070;-87
2023/08/21 08:27:44;;;;;;;0.30;0.30;;;24.40;99.90;;;;;;4964099;28;20057;-89
2023/08/21 08:30:10;;;;;;;0.30;0.30;;;23.60;99.90;;;;;;4967153;28;20562;-88
2023/08/21 08:32:36;;;;;;;0.30;0.30;;;23.80;99.90;;;;;;4962253;28;20051;-88
2023/08/21 08:35:02;;;;;;;0.40;0.40;;;24.00;99.90;;;;;;4947673;28;20046;-89
2023/08/21 08:37:27;;;;;;;0.30;0.30;;;23.70;99.90;;;;;;4949733;28;20412;-88
2023/08/21 08:39:53;;;;;;;0.35;0.35;;;23.40;99.90;;;;;;4959768;28;20058;-87
2023/08/21 08:42:19;;;;;;;0.30;0.30;;;23.80;99.90;;;;;;4960074;28;20073;-88
2023/08/21 08:44:46;;;;;;;0.30;0.30;;;23.90;99.90;;;;;;4962001;28;20053;-90
2023/08/21 08:47:13;;;;;;;0.60;0.60;;;24.30;99.90;;;;;;4962436;28;20077;-90
2023/08/21 08:49:38;;;;;;;0.30;0.30;;;24.50;99.90;;;;;;4954184;28;20569;-88
2023/08/21 08:52:04;;;;;;;0.30;0.30;;;24.40;99.90;;;;;;4958498;28;20046;-89
2023/08/21 08:54:31;;;;;;;0.40;0.40;;;24.90;99.90;;;;;;4957492;28;21237;-89
2023/08/21 08:56:58;;;;;;;0.30;0.30;;;25.00;99.90;;;;;;4957946;28;20126;-88
2023/08/21 08:59:23;;;;;;;0.30;0.30;;;25.20;99.90;;;;;;4958013;28;20054;-89
2023/08/21 09:01:49;;;;;;;0.30;0.30;;;24.90;99.90;;;;;;4961321;28;20104;-88
2023/08/21 09:04:15;;;;;;;0.38;0.38;;;25.30;99.90;;;;;;4958817;28;20058;-89
2023/08/21 09:06:41;;;;;;;0.30;0.30;;;25.20;99.90;;;;;;4959365;28;20070;-87
2023/08/21 09:09:08;;;;;;;0.35;0.35;;;25.40;99.90;;;;;;4980935;28;20136;-87
2023/08/21 09:11:34;;;;;;;0.30;0.30;;;25.50;99.90;;;;;;4964310;28;20600;-88
2023/08/21 09:14:00;;;;;;;0.30;0.30;;;25.40;99.90;;;;;;4961292;28;20042;-86
2023/08/21 09:16:26;;;;;;;0.35;0.35;;;25.70;99.90;;;;;;4959738;28;20120;-86
2023/08/21 09:18:53;;;;;;;0.30;0.30;;;25.40;99.90;;;;;;4959201;28;20050;-87
2023/08/21 09:21:21;;;;;;;0.30;0.30;;;25.20;99.90;;;;;;4953523;28;20101;-85
2023/08/21 09:23:48;;;;;;;0.30;0.30;;;25.20;99.90;;;;;;4940742;28;20121;-86
2023/08/21 09:26:23;;;;;;;0.30;0.30;;;25.70;99.90;;;;;;4955279;28;20059;-88
2023/08/21 09:28:50;;;;;;;0.40;0.40;;;25.90;99.90;;;;;;4964120;28;20522;-87
2023/08/21 09:31:21;;;;;;;0.30;0.30;;;26.30;99.90;;;;;;4960628;28;20058;-90
2023/08/21 09:33:59;;;;;;;0.30;0.30;;;25.90;99.90;;;;;;4961951;28;20058;-90
2023/08/21 09:36:24;;;;;;;0.30;0.30;;;26.00;99.90;;;;;;4953129;28;20042;-88
2023/08/21 09:38:52;;;;;;;0.30;0.30;;;26.00;99.90;;;;;;4961932;28;20058;-87
2023/08/21 09:41:22;;;;;;;0.30;0.30;;;26.00;99.90;;;;;;4961431;28;20049;-88
2023/08/21 09:43:48;;;;;;;0.30;0.30;;;26.10;99.90;;;;;;4956460;28;20046;-91
2023/08/21 09:46:25;;;;;;;0.30;0.30;;;25.80;99.90;;;;;;4960344;28;20441;-88
2023/08/21 09:48:55;;;;;;;0.30;0.30;;;25.80;99.90;;;;;;4960382;28;20050;-89
2023/08/21 09:51:21;;;;;;;0.30;0.30;;;25.70;99.90;;;;;;4980377;28;20523;-90
2023/08/21 09:53:49;;;;;;;0.30;0.30;;;25.60;99.90;;;;;;4964440;28;20134;-89
2023/08/21 09:56:15;;;;;;;0.30;0.30;;;25.60;99.90;;;;;;4955129;28;20053;-90
2023/08/21 09:58:41;;;;;;;0.30;0.30;;;25.60;99.90;;;;;;4963812;28;20050;-89
2023/08/21 10:01:12;;;;;;;0.30;0.30;;;25.90;99.90;;;;;;4960969;28;20121;-89
2023/08/21 10:03:39;;;;;;;0.30;0.30;;;25.90;99.90;;;;;;4961404;28;20050;-87
2023/08/21 10:06:06;;;;;;;0.30;0.30;;;26.30;99.90;;;;;;4960522;28;20108;-91
2023/08/21 10:08:35;;;;;;;0.30;0.30;;;26.60;99.90;;;;;;4982647;28;20142;-90
2023/08/21 10:11:07;;;;;;;0.30;0.30;;;26.30;99.90;;;;;;4939677;28;20704;-89
2023/08/21 10:13:35;;;;;;;0.30;0.30;;;25.90;99.90;;;;;;4948687;28;20046;-88
2023/08/21 10:16:01;;;;;;;0.30;0.30;;;25.90;99.90;;;;;;4962310;28;20094;-89
2023/08/21 10:18:35;;;;;;;0.30;0.30;;;25.80;99.90;;;;;;4964979;28;20046;-88
2023/08/21 10:21:11;;;;;;;;;;;26.10;99.90;;;;;;4951343;28;20049;-87
2023/08/21 10:23:38;;;;;;;0.40;0.40;;;26.60;99.90;;;;;;4964993;28;19928;-88
2023/08/21 10:26:09;;;;;;;0.30;0.30;;;26.70;99.90;;;;;;4963993;28;20112;-91
2023/08/21 10:28:55;;;;;;;0.30;0.30;;;26.90;99.90;;;;;;4944978;28;20125;-95
2023/08/21 10:31:42;;;;;;;0.30;0.30;;;26.40;99.90;;;;;;4972011;28;20035;-95
2023/08/21 10:34:09;;;;;;;0.30;0.30;;;26.80;99.90;;;;;;4954472;28;20812;-90
2023/08/21 10:36:41;;;;;;;0.30;0.30;;;27.10;99.90;;;;;;4954501;28;20042;-92
2023/08/21 10:39:21;;;;;;;0.30;0.30;;;27.00;99.90;;;;;;4966328;28;20059;-86
2023/08/21 10:42:14;;;;;;;0.30;0.30;;;27.20;99.90;;;;;;4964364;28;20078;-90
2023/08/21 10:45:09;;;;;;;0.30;0.30;;;27.40;99.90;;;;;;4950537;28;20391;-95
2023/08/21 10:47:35;;;;;;;0.30;0.30;;;27.60;99.90;;;;;;4957146;28;20062;-93
2023/08/21 10:50:06;;;;;;;0.30;0.30;;;27.70;99.90;;;;;;4945624;28;20563;-88
2023/08/21 10:52:43;;;;;;;0.30;0.30;;;27.50;99.90;;;;;;4963664;28;20064;-88
2023/08/21 10:55:10;;;;;;;0.30;0.30;;;27.30;99.90;;;;;;4952253;28;20061;-90
2023/08/21 10:57:36;;;;;;;0.30;0.30;;;27.40;99.90;;;;;;4965972;28;20042;-88
2023/08/21 11:00:09;;;;;;;0.30;0.30;;;27.80;99.90;;;;;;4963474;28;20146;-91
2023/08/21 11:02:36;;;;;;;0.30;0.30;;;27.90;99.90;;;;;;4966067;28;20035;-88
2023/08/21 11:05:03;;;;;;;0.30;0.30;;;28.00;99.90;;;;;;4973376;28;20621;-88
2023/08/21 11:07:29;;;;;;;0.30;0.30;;;28.20;99.90;;;;;;4964349;28;20050;-88
2023/08/21 11:09:55;;;;;;;0.30;0.30;;;28.20;99.90;;;;;;4961544;28;20080;-85
2023/08/21 11:12:23;;;;;;;0.22;0.22;;;28.20;99.90;;;;;;4958398;28;20046;-87
2023/08/21 11:14:49;;;;;;;0.30;0.30;;;28.00;99.90;;;;;;4968670;28;20080;-87
2023/08/21 11:17:15;;;;;;;0.30;0.30;;;27.70;99.90;;;;;;4964944;28;20054;-87
2023/08/21 11:19:42;;;;;;;0.30;0.30;;;27.80;99.90;;;;;;4961902;28;20053;-87
2023/08/21 11:22:08;;;;;;;0.30;0.30;;;27.20;99.90;;;;;;4942439;28;20891;-87
2023/08/21 11:24:37;;;;;;;0.30;0.30;;;27.70;99.90;;;;;;4962817;28;20047;-89
2023/08/21 11:27:04;;;;;;;0.35;0.35;;;28.10;99.90;;;;;;4965686;28;20047;-90
2023/08/21 11:29:39;;;;;;;0.30;0.30;;;28.30;99.90;;;;;;4961073;28;20598;-89
2023/08/21 11:32:19;;;;;;;0.30;0.30;;;28.60;99.90;;;;;;4958741;28;20039;-89
2023/08/21 11:34:56;;;;;;;0.30;0.30;;;28.70;99.90;;;;;;4951357;28;21481;-88
2023/08/21 11:37:24;;;;;;;0.30;0.30;;;28.80;99.90;;;;;;4961014;28;20038;-89
2023/08/21 11:39:52;;;;;;;0.30;0.30;;;28.30;99.90;;;;;;4966729;28;20117;-89
2023/08/21 11:42:20;;;;;;;0.30;0.30;;;27.60;99.90;;;;;;4963891;28;20058;-89
2023/08/21 11:44:53;;;;;;;0.30;0.30;;;27.50;99.90;;;;;;4934903;28;20057;-90
2023/08/21 11:47:21;;;;;;;0.30;0.30;;;28.00;99.90;;;;;;4967519;28;20046;-90
2023/08/21 11:49:49;;;;;;;0.30;0.30;;;28.50;99.90;;;;;;4945818;28;20094;-90
2023/08/21 11:52:21;;;;;;;0.30;0.30;;;28.80;99.90;;;;;;4964307;28;20050;-87
2023/08/21 11:54:49;;;;;;;0.30;0.30;;;29.00;99.90;;;;;;4987211;28;20098;-90
2023/08/21 11:57:15;;;;;;;0.30;0.30;;;28.90;99.90;;;;;;4958626;28;20050;-91
2023/08/21 11:59:41;;;;;;;0.30;0.30;;;29.20;99.90;;;;;;4963339;28;20084;-89
2023/08/21 12:02:39;;;;;;;0.30;0.30;;;29.00;99.90;;;;;;4966118;28;20109;-92
2023/08/21 12:05:06;;;;;;;0.20;0.20;;;29.10;99.90;;;;;;4915112;28;20089;-91
2023/08/21 12:07:32;;;;;;;0.30;0.30;;;29.00;99.90;;;;;;4966252;28;20053;-91
2023/08/21 12:09:58;;;;;;;0.30;0.30;;;29.20;99.90;;;;;;4967185;28;20082;-92
2023/08/21 12:12:24;;;;;;;0.30;0.30;;;29.20;99.90;;;;;;4963288;28;20732;-90
2023/08/21 12:14:50;;;;;;;0.20;0.20;;;29.30;99.90;;;;;;4966765;28;20058;-90
2023/08/21 12:17:16;;;;;;;0.30;0.30;;;29.50;99.90;;;;;;4952142;28;20137;-88
2023/08/21 12:19:43;;;;;;;0.30;0.30;;;29.30;99.90;;;;;;4959028;28;20081;-88
2023/08/21 12:22:09;;;;;;;0.20;0.20;;;29.50;99.90;;;;;;4966687;28;20042;-89
2023/08/21 12:24:34;;;;;;;0.25;0.25;;;28.50;99.90;;;;;;4963307;28;20112;-88
2023/08/21 12:27:00;;;;;;;0.30;0.30;;;27.70;99.90;;;;;;4961527;28;20046;-89
2023/08/21 12:29:26;;;;;;;0.22;0.22;;;28.20;99.90;;;;;;4962901;28;20054;-90
2023/08/21 12:31:52;;;;;;;0.30;0.30;;;28.80;99.90;;;;;;4955479;28;20061;-88
2023/08/21 12:34:17;;;;;;;0.30;0.30;;;29.00;99.90;;;;;;4960856;28;20042;-87
2023/08/21 12:36:43;;;;;;;0.28;0.28;;;29.30;99.90;;;;;;4983316;28;20377;-90
2023/08/21 12:39:09;;;;;;;0.30;0.30;;;28.80;99.90;;;;;;4962176;28;20109;-90
2023/08/21 12:41:35;;;;;;;0.30;0.30;;;28.60;99.90;;;;;;4964404;28;20042;-89
2023/08/21 12:44:02;;;;;;;0.30;0.30;;;27.70;99.90;;;;;;4960446;28;20046;-90
2023/08/21 12:46:29;;;;;;;0.20;0.20;;;27.80;99.90;;;;;;4960747;28;20055;-90
2023/08/21 12:48:55;;;;;;;0.30;0.30;;;28.40;99.90;;;;;;4972796;28;20161;-90